Time;durP1;ratioP1;P1;durP2;ratioP2;P2;SDS_P1;SDS_P2;PMS_P1;PMS_P2;Temp;Humidity;BMP_temperature;BMP_pressure;BME280_temperature;BME280_humidity;BME280_pressure;Samples;Min_cycle;Max_cycle;Signal;HPM_P1;HPM_P2
2021/07/12 00:00:49;;;;;;;22.88;9.95;;;16.30;99.90;;;;;;4987042;28;20061;-75
2021/07/12 00:03:15;;;;;;;21.92;9.77;;;16.30;99.90;;;;;;4996940;28;20035;-75
2021/07/12 00:05:41;;;;;;;23.17;10.55;;;16.20;99.90;;;;;;4997023;28;20078;-77
2021/07/12 00:08:09;;;;;;;23.55;11.07;;;16.20;99.90;;;;;;4997716;28;20022;-75
2021/07/12 00:10:39;;;;;;;25.52;11.98;;;16.20;99.90;;;;;;4998335;28;20025;-77
2021/07/12 00:13:11;;;;;;;26.67;12.15;;;16.20;99.90;;;;;;4986018;28;20030;-77
2021/07/12 00:15:37;;;;;;;22.00;11.13;;;16.20;99.90;;;;;;5036628;23;20501;-76
2021/07/12 00:18:03;;;;;;;23.40;10.40;;;17.40;99.90;;;;;;5036207;28;20010;-75
2021/07/12 00:20:29;;;;;;;21.80;10.15;;;16.20;99.90;;;;;;5035777;28;20029;-76
2021/07/12 00:22:57;;;;;;;23.45;11.23;;;16.20;99.90;;;;;;5036529;28;20025;-74
2021/07/12 00:25:23;;;;;;;23.67;11.27;;;16.20;99.90;;;;;;5036338;28;20383;-77
2021/07/12 00:27:50;;;;;;;27.52;12.82;;;16.20;99.90;;;;;;5020076;28;20026;-76
2021/07/12 00:30:19;;;;;;;28.30;13.18;;;16.20;99.90;;;;;;5015971;28;20408;-77
2021/07/12 00:32:45;;;;;;;28.60;13.13;;;16.20;99.90;;;;;;4999970;28;20037;-77
2021/07/12 00:35:13;;;;;;;24.05;11.55;;;16.20;99.90;;;;;;5016014;28;20034;-74
2021/07/12 00:37:39;;;;;;;27.55;11.52;;;16.10;99.90;;;;;;5033298;28;20025;-74
2021/07/12 00:40:07;;;;;;;26.88;12.40;;;16.10;99.90;;;;;;5037324;28;20037;-75
2021/07/12 00:42:33;;;;;;;26.88;11.95;;;16.10;99.90;;;;;;5035647;28;20386;-77
2021/07/12 00:44:59;;;;;;;27.80;13.10;;;16.10;99.90;;;;;;5040302;23;20180;-75
2021/07/12 00:47:25;;;;;;;27.20;12.52;;;16.10;99.90;;;;;;5031082;28;20487;-73
2021/07/12 00:49:51;;;;;;;29.48;13.85;;;16.20;99.90;;;;;;5035857;28;20028;-72
2021/07/12 00:52:17;;;;;;;29.40;13.30;;;16.20;99.90;;;;;;5035118;28;20132;-74
2021/07/12 00:54:42;;;;;;;28.20;12.73;;;16.20;99.90;;;;;;5035672;28;20035;-73
2021/07/12 00:57:08;;;;;;;27.67;13.70;;;16.20;99.90;;;;;;5022472;28;20046;-74
2021/07/12 00:59:37;;;;;;;26.48;12.75;;;16.20;99.90;;;;;;5015470;28;20057;-76
2021/07/12 01:02:05;;;;;;;29.45;12.73;;;16.30;99.90;;;;;;5015201;28;20033;-74
2021/07/12 01:04:31;;;;;;;28.73;13.30;;;16.20;99.90;;;;;;5015071;28;20030;-74
2021/07/12 01:06:57;;;;;;;29.92;13.02;;;16.20;99.90;;;;;;5026195;28;20061;-75
2021/07/12 01:09:23;;;;;;;27.10;12.48;;;16.20;99.90;;;;;;5017069;28;20052;-75
2021/07/12 01:11:56;;;;;;;27.63;13.15;;;16.20;99.90;;;;;;5035173;28;20099;-74
2021/07/12 01:14:39;;;;;;;26.85;12.20;;;16.30;99.90;;;;;;5034862;28;20506;-75
2021/07/12 01:17:16;;;;;;;26.08;12.00;;;16.20;99.90;;;;;;5005388;28;20048;-75
2021/07/12 01:20:06;;;;;;;26.02;12.27;;;16.20;99.90;;;;;;4998021;28;20065;-74
2021/07/12 01:22:50;;;;;;;23.92;11.30;;;16.30;99.90;;;;;;5015175;28;20108;-72
2021/07/12 01:25:42;;;;;;;25.77;12.82;;;16.20;99.90;;;;;;5023654;23;20049;-73
2021/07/12 01:28:51;;;;;;;23.65;11.52;;;16.20;99.90;;;;;;5030170;28;20022;-75
2021/07/12 01:31:50;;;;;;;25.15;11.73;;;16.20;99.90;;;;;;5003526;28;20054;-74
2021/07/12 01:34:38;;;;;;;24.38;11.38;;;16.10;99.90;;;;;;4995139;28;20018;-76
2021/07/12 01:37:21;;;;;;;24.17;11.93;;;16.10;99.90;;;;;;4995248;28;20031;-74
2021/07/12 01:40:18;;;;;;;21.70;10.23;;;16.10;99.90;;;;;;4995098;28;20026;-76
2021/07/12 01:42:46;;;;;;;23.00;10.55;;;16.00;99.90;;;;;;4977835;28;20030;-75
2021/07/12 01:45:14;;;;;;;;;;;16.00;99.90;;;;;;4977841;28;20030;-75
2021/07/12 01:47:42;;;;;;;26.85;11.25;;;15.90;99.90;;;;;;5010682;28;19909;-75
2021/07/12 01:50:13;;;;;;;31.52;13.13;;;15.90;99.90;;;;;;5006103;28;20019;-75
2021/07/12 01:53:08;;;;;;;23.70;11.93;;;15.90;99.90;;;;;;4977582;28;20567;-76
2021/07/12 01:55:56;;;;;;;30.60;12.57;;;15.80;99.90;;;;;;4995311;28;20034;-76
2021/07/12 01:58:43;;;;;;;24.77;12.40;;;15.80;99.90;;;;;;4994751;28;20030;-75
2021/07/12 02:01:11;;;;;;;27.77;11.25;;;15.70;99.90;;;;;;4994768;28;20030;-73
2021/07/12 02:03:38;;;;;;;23.92;11.50;;;15.70;99.90;;;;;;4994705;28;20022;-76
2021/07/12 02:06:08;;;;;;;27.67;12.75;;;15.70;99.90;;;;;;4979162;28;20023;-72
2021/07/12 02:08:39;;;;;;;23.13;10.80;;;15.60;99.90;;;;;;4996968;28;20025;-74
2021/07/12 02:11:08;;;;;;;32.25;12.98;;;15.70;99.90;;;;;;5014209;28;20378;-75
2021/07/12 02:13:37;;;;;;;24.90;11.60;;;15.60;99.90;;;;;;4995963;28;20029;-74
2021/07/12 02:16:05;;;;;;;27.20;11.85;;;15.60;99.90;;;;;;5011749;28;20450;-74
2021/07/12 02:18:33;;;;;;;25.27;12.17;;;15.60;99.90;;;;;;4994886;28;20476;-74
2021/07/12 02:21:00;;;;;;;26.45;12.10;;;15.60;99.90;;;;;;4999093;28;20382;-77
2021/07/12 02:23:27;;;;;;;23.70;11.35;;;15.50;99.90;;;;;;5013928;28;20025;-76
2021/07/12 02:25:54;;;;;;;23.45;11.43;;;15.50;99.90;;;;;;5013393;28;20029;-73
2021/07/12 02:28:21;;;;;;;23.15;11.18;;;15.50;99.90;;;;;;4996116;28;20545;-73
2021/07/12 02:30:49;;;;;;;22.80;11.05;;;15.40;99.90;;;;;;4995855;28;20112;-72
2021/07/12 02:33:16;;;;;;;23.42;11.32;;;15.40;99.90;;;;;;5013979;28;20088;-75
2021/07/12 02:35:43;;;;;;;25.70;11.52;;;15.40;99.90;;;;;;4996275;28;20116;-73
2021/07/12 02:38:09;;;;;;;24.33;11.38;;;15.30;99.90;;;;;;4995386;28;20105;-74
2021/07/12 02:40:35;;;;;;;25.67;11.88;;;15.40;99.90;;;;;;4993979;28;20495;-73
2021/07/12 02:43:03;;;;;;;21.45;10.77;;;15.40;99.90;;;;;;4994032;28;20026;-72
2021/07/12 02:45:30;;;;;;;22.15;10.63;;;15.30;99.90;;;;;;4976775;28;20030;-76
2021/07/12 02:47:56;;;;;;;22.17;11.15;;;15.30;99.90;;;;;;5010182;28;20078;-77
2021/07/12 02:50:22;;;;;;;27.80;11.65;;;15.30;99.90;;;;;;5013656;28;20026;-72
2021/07/12 02:53:09;;;;;;;24.45;12.73;;;15.30;99.90;;;;;;5013635;28;20054;-76
2021/07/12 02:55:35;;;;;;;22.52;11.02;;;15.20;99.90;;;;;;5014067;28;20018;-73
2021/07/12 02:58:00;;;;;;;26.25;11.43;;;15.20;99.90;;;;;;4980116;28;20084;-76
2021/07/12 03:00:26;;;;;;;25.58;12.20;;;15.20;99.90;;;;;;4976425;28;20035;-73
2021/07/12 03:02:52;;;;;;;28.05;11.60;;;15.20;99.90;;;;;;4976695;28;20041;-74
2021/07/12 03:05:17;;;;;;;28.00;13.15;;;15.20;99.90;;;;;;4994392;28;20034;-75
2021/07/12 03:08:13;;;;;;;30.83;14.13;;;15.20;99.90;;;;;;4994131;28;20026;-74
2021/07/12 03:10:50;;;;;;;31.27;14.57;;;15.30;99.90;;;;;;4976685;28;20077;-74
2021/07/12 03:13:20;;;;;;;30.00;14.85;;;15.30;99.90;;;;;;4994571;28;20031;-76
2021/07/12 03:15:47;;;;;;;27.65;13.93;;;15.40;99.90;;;;;;4994325;28;20088;-76
2021/07/12 03:18:45;;;;;;;31.38;14.45;;;15.40;99.90;;;;;;5013421;28;20037;-76
2021/07/12 03:21:12;;;;;;;34.90;15.80;;;15.40;99.90;;;;;;4981614;28;20444;-77
2021/07/12 03:23:43;;;;;;;32.83;14.82;;;15.40;99.90;;;;;;5011687;28;20479;-76
2021/07/12 03:26:10;;;;;;;35.70;15.88;;;15.40;99.90;;;;;;4997183;28;20030;-76
2021/07/12 03:28:38;;;;;;;37.75;15.20;;;15.50;99.90;;;;;;4980093;28;20022;-74
2021/07/12 03:31:04;;;;;;;33.53;14.45;;;15.50;99.90;;;;;;4997883;28;20054;-76
2021/07/12 03:33:33;;;;;;;36.58;15.40;;;15.50;99.90;;;;;;4980133;28;20022;-76
2021/07/12 03:36:00;;;;;;;34.92;17.00;;;15.50;99.90;;;;;;4998043;28;20022;-73
2021/07/12 03:38:26;;;;;;;35.13;16.05;;;15.50;99.90;;;;;;4997488;28;20120;-76
2021/07/12 03:40:53;;;;;;;36.20;17.27;;;15.50;99.90;;;;;;4997515;28;20095;-75
2021/07/12 03:43:20;;;;;;;33.33;15.02;;;15.50;99.90;;;;;;4997453;28;20058;-76
2021/07/12 03:45:57;;;;;;;33.10;16.42;;;16.00;99.90;;;;;;4997354;28;20476;-73
2021/07/12 03:48:43;;;;;;;35.90;16.70;;;15.60;99.90;;;;;;4997349;28;20053;-74
2021/07/12 03:51:21;;;;;;;36.70;16.42;;;15.60;99.90;;;;;;4997512;28;20037;-75
2021/07/12 03:53:47;;;;;;;32.05;15.55;;;15.70;99.90;;;;;;5046875;23;20056;-74
2021/07/12 03:56:13;;;;;;;37.78;16.95;;;15.70;99.90;;;;;;5012830;23;20458;-76
2021/07/12 03:58:39;;;;;;;33.63;14.90;;;15.80;99.90;;;;;;5016946;28;20015;-75
2021/07/12 04:01:05;;;;;;;37.10;16.23;;;15.80;99.90;;;;;;5016966;28;20053;-75
2021/07/12 04:03:31;;;;;;;35.17;16.80;;;15.80;99.90;;;;;;5000468;28;20029;-78
2021/07/12 04:05:56;;;;;;;32.60;15.38;;;15.90;99.90;;;;;;5016645;28;20042;-76
2021/07/12 04:08:22;;;;;;;38.13;16.05;;;15.90;99.90;;;;;;5004843;28;20021;-77
2021/07/12 04:10:48;;;;;;;34.80;16.48;;;15.90;99.90;;;;;;5018995;28;20041;-74
2021/07/12 04:13:15;;;;;;;38.22;16.80;;;15.90;99.90;;;;;;5027863;28;20026;-75
2021/07/12 04:15:41;;;;;;;29.98;15.60;;;16.00;99.90;;;;;;5005304;28;20079;-75
2021/07/12 04:18:07;;;;;;;35.67;16.50;;;16.00;99.90;;;;;;5011652;28;20022;-76
2021/07/12 04:20:33;;;;;;;35.53;15.93;;;16.00;99.90;;;;;;5034501;28;20056;-75
2021/07/12 04:22:59;;;;;;;36.75;16.60;;;16.00;99.90;;;;;;5036086;28;20079;-75
2021/07/12 04:25:26;;;;;;;32.78;16.08;;;16.10;99.90;;;;;;5031860;28;20061;-75
2021/07/12 04:27:51;;;;;;;35.00;15.85;;;16.10;99.90;;;;;;5000071;28;20471;-76
2021/07/12 04:30:19;;;;;;;32.83;16.13;;;16.20;99.90;;;;;;5022058;28;20104;-76
2021/07/12 04:32:45;;;;;;;37.53;16.95;;;16.20;99.90;;;;;;5023790;28;20045;-76
2021/07/12 04:35:14;;;;;;;39.30;17.27;;;16.20;99.90;;;;;;5017225;28;20022;-76
2021/07/12 04:37:40;;;;;;;34.72;16.40;;;16.30;99.90;;;;;;5016481;28;20033;-75
2021/07/12 04:40:06;;;;;;;33.53;16.33;;;16.40;99.90;;;;;;5018941;28;20033;-76
2021/07/12 04:42:32;;;;;;;29.70;15.07;;;16.40;99.90;;;;;;5035718;28;20052;-75
2021/07/12 04:44:58;;;;;;;34.33;17.50;;;16.50;99.90;;;;;;5035549;28;20018;-76
2021/07/12 04:47:24;;;;;;;34.28;15.88;;;16.50;99.90;;;;;;5020091;28;20022;-75
2021/07/12 04:49:49;;;;;;;34.92;17.00;;;16.50;99.90;;;;;;5026793;28;20021;-75
2021/07/12 04:52:15;;;;;;;33.33;17.02;;;16.60;99.90;;;;;;5036690;28;20023;-77
2021/07/12 04:54:42;;;;;;;30.65;16.30;;;16.60;99.90;;;;;;5033773;28;20036;-76
2021/07/12 04:57:08;;;;;;;27.75;14.60;;;16.60;99.90;;;;;;5018105;28;20037;-77
2021/07/12 04:59:38;;;;;;;32.30;15.70;;;16.70;99.90;;;;;;5010449;28;20406;-75
2021/07/12 05:02:05;;;;;;;32.13;15.93;;;16.70;99.90;;;;;;4998769;28;20430;-76
2021/07/12 05:04:31;;;;;;;31.20;15.57;;;16.80;99.90;;;;;;5020421;28;20469;-75
2021/07/12 05:07:00;;;;;;;33.17;17.92;;;16.80;99.90;;;;;;5036662;28;20065;-78
2021/07/12 05:09:25;;;;;;;29.55;16.17;;;16.90;99.90;;;;;;5009289;28;20040;-77
2021/07/12 05:11:51;;;;;;;30.17;15.32;;;16.90;99.90;;;;;;5015420;28;20026;-77
2021/07/12 05:14:17;;;;;;;32.17;15.13;;;17.00;99.90;;;;;;4983597;28;20030;-76
2021/07/12 05:16:43;;;;;;;26.50;14.23;;;17.10;99.90;;;;;;5032495;28;20032;-76
2021/07/12 05:19:08;;;;;;;29.38;14.35;;;17.10;99.90;;;;;;5016921;28;20036;-78
2021/07/12 05:21:34;;;;;;;24.67;13.70;;;17.20;99.90;;;;;;5001282;28;20520;-77
2021/07/12 05:24:00;;;;;;;25.73;14.43;;;17.30;99.90;;;;;;5008389;28;20459;-77
2021/07/12 05:26:26;;;;;;;27.45;14.55;;;17.40;99.90;;;;;;5038188;28;20336;-78
2021/07/12 05:28:52;;;;;;;26.27;14.25;;;17.50;99.90;;;;;;5037862;28;20395;-78
2021/07/12 05:31:18;;;;;;;28.80;13.45;;;17.60;99.90;;;;;;5031200;28;20017;-78
2021/07/12 05:33:44;;;;;;;30.17;14.55;;;17.70;99.90;;;;;;5044930;23;20049;-77
2021/07/12 05:36:10;;;;;;;31.23;13.93;;;17.80;99.90;;;;;;5017449;28;20025;-78
2021/07/12 05:38:35;;;;;;;25.15;12.85;;;17.80;99.90;;;;;;5034679;28;20475;-76
2021/07/12 05:41:01;;;;;;;32.63;13.75;;;18.00;99.90;;;;;;5035940;28;20021;-79
2021/07/12 05:43:27;;;;;;;27.13;13.50;;;18.10;99.90;;;;;;5033350;28;20055;-77
2021/07/12 05:45:53;;;;;;;23.45;12.05;;;18.20;99.90;;;;;;5019789;28;20406;-77
2021/07/12 05:48:19;;;;;;;23.65;13.02;;;18.30;99.90;;;;;;5013604;28;20030;-78
2021/07/12 05:50:45;;;;;;;24.52;12.07;;;18.50;99.90;;;;;;5030320;28;20036;-77
2021/07/12 05:53:10;;;;;;;18.75;11.05;;;18.60;99.90;;;;;;5030102;28;20021;-78
2021/07/12 05:55:36;;;;;;;20.05;11.48;;;18.70;99.90;;;;;;5025814;28;20104;-77
2021/07/12 05:58:02;;;;;;;23.63;11.35;;;18.80;99.90;;;;;;5029474;28;20022;-76
2021/07/12 06:00:27;;;;;;;17.92;10.35;;;18.80;99.90;;;;;;5019623;28;20466;-76
2021/07/12 06:02:53;;;;;;;22.00;10.68;;;18.80;99.90;;;;;;5016017;28;20054;-76
2021/07/12 06:05:19;;;;;;;18.35;11.00;;;18.80;99.90;;;;;;5015785;28;20037;-76
2021/07/12 06:07:46;;;;;;;19.77;11.38;;;18.80;99.90;;;;;;5015141;28;20014;-77
2021/07/12 06:10:12;;;;;;;16.85;10.45;;;18.80;99.90;;;;;;5007665;28;20022;-77
2021/07/12 06:12:38;;;;;;;20.23;10.88;;;18.90;99.90;;;;;;5034328;28;20017;-75
2021/07/12 06:15:05;;;;;;;17.98;9.80;;;18.90;99.90;;;;;;5034467;28;20030;-76
2021/07/12 06:17:31;;;;;;;18.27;10.68;;;19.00;99.90;;;;;;5034073;28;20386;-77
2021/07/12 06:19:56;;;;;;;16.63;10.23;;;19.00;99.90;;;;;;5022800;28;20021;-75
2021/07/12 06:22:23;;;;;;;18.05;9.88;;;19.00;99.90;;;;;;5003086;28;20013;-76
2021/07/12 06:24:48;;;;;;;23.48;9.70;;;19.10;99.90;;;;;;5027074;28;20022;-77
2021/07/12 06:27:15;;;;;;;19.65;10.32;;;19.10;99.90;;;;;;5021155;28;20025;-77
2021/07/12 06:29:41;;;;;;;18.27;10.20;;;19.20;99.90;;;;;;5014150;28;20018;-76
2021/07/12 06:32:06;;;;;;;18.55;10.18;;;19.30;99.90;;;;;;4996198;28;20022;-76
2021/07/12 06:34:32;;;;;;;15.02;9.07;;;19.50;99.90;;;;;;4996636;28;20014;-75
2021/07/12 06:36:58;;;;;;;15.77;9.15;;;19.60;99.90;;;;;;5014554;28;20033;-76
2021/07/12 06:39:23;;;;;;;14.05;7.80;;;19.80;99.90;;;;;;4997435;28;20026;-77
2021/07/12 06:41:49;;;;;;;13.45;7.57;;;20.00;99.90;;;;;;5034627;28;20080;-76
2021/07/12 06:44:15;;;;;;;13.05;8.15;;;20.10;99.90;;;;;;5015909;28;20107;-76
2021/07/12 06:46:41;;;;;;;13.40;6.90;;;20.30;99.90;;;;;;5010643;28;20542;-77
2021/07/12 06:49:06;;;;;;;11.18;7.10;;;20.50;99.90;;;;;;5019466;28;20029;-77
2021/07/12 06:51:32;;;;;;;9.73;6.07;;;20.70;99.90;;;;;;5004161;28;20021;-77
2021/07/12 06:54:00;;;;;;;10.45;5.75;;;20.80;99.90;;;;;;5029289;28;20026;-76
2021/07/12 06:56:26;;;;;;;11.43;5.55;;;21.10;99.90;;;;;;5015787;28;20069;-78
2021/07/12 06:58:52;;;;;;;10.77;5.38;;;21.30;99.90;;;;;;5030665;28;20017;-77
2021/07/12 07:01:18;;;;;;;6.57;4.30;;;21.50;99.90;;;;;;5014349;28;20061;-77
2021/07/12 07:03:44;;;;;;;5.85;3.60;;;21.70;99.90;;;;;;5014538;28;20369;-78
2021/07/12 07:06:10;;;;;;;6.88;4.13;;;21.80;99.90;;;;;;5000393;28;20033;-76
2021/07/12 07:08:36;;;;;;;5.60;3.00;;;22.00;99.90;;;;;;5035155;28;20113;-78
2021/07/12 07:11:03;;;;;;;4.65;3.10;;;22.20;99.90;;;;;;5014628;28;20013;-78
2021/07/12 07:13:29;;;;;;;4.63;3.00;;;22.50;99.90;;;;;;5016801;28;20426;-77
2021/07/12 07:15:55;;;;;;;3.88;2.88;;;22.60;99.90;;;;;;5013395;28;20033;-79
2021/07/12 07:18:21;;;;;;;4.38;2.65;;;22.80;99.90;;;;;;5014882;28;20029;-77
2021/07/12 07:20:47;;;;;;;2.92;2.28;;;22.90;99.90;;;;;;5015958;28;20022;-77
2021/07/12 07:23:13;;;;;;;4.38;2.13;;;23.00;99.90;;;;;;5015273;28;20037;-76
2021/07/12 07:25:38;;;;;;;3.00;2.10;;;23.10;99.90;;;;;;5001715;28;20033;-74
2021/07/12 07:28:05;;;;;;;4.53;2.05;;;23.30;99.90;;;;;;5015368;28;20024;-73
2021/07/12 07:30:30;;;;;;;2.70;1.55;;;23.40;99.90;;;;;;5019154;28;20022;-74
2021/07/12 07:32:58;;;;;;;2.20;1.25;;;23.50;99.90;;;;;;5013047;28;20026;-75
2021/07/12 07:35:25;;;;;;;5.57;2.28;;;23.70;99.90;;;;;;4995648;28;20398;-77
2021/07/12 07:37:51;;;;;;;3.33;1.50;;;23.90;99.90;;;;;;4995906;28;20030;-76
2021/07/12 07:40:20;;;;;;;2.50;1.50;;;24.10;99.90;;;;;;5024242;28;20024;-76
2021/07/12 07:42:47;;;;;;;3.03;1.38;;;24.10;98.90;;;;;;5008387;28;20033;-75
2021/07/12 07:45:15;;;;;;;2.08;1.38;;;23.90;99.00;;;;;;5031393;28;20028;-75
2021/07/12 07:47:41;;;;;;;;;;;23.90;99.90;;;;;;5016910;28;20032;-77
2021/07/12 07:50:09;;;;;;;1.58;0.90;;;24.00;99.90;;;;;;5011004;28;20333;-76
2021/07/12 07:52:36;;;;;;;1.42;1.33;;;24.20;99.80;;;;;;5012904;28;20037;-76
2021/07/12 07:55:04;;;;;;;1.63;1.30;;;24.30;98.80;;;;;;5013189;28;20022;-76
2021/07/12 07:57:29;;;;;;;2.72;0.90;;;24.30;98.20;;;;;;5014979;28;20018;-78
2021/07/12 07:59:55;;;;;;;1.23;0.90;;;24.30;97.50;;;;;;5011596;28;20035;-75
2021/07/12 08:02:20;;;;;;;4.35;1.83;;;24.30;97.60;;;;;;5012822;28;20065;-74
2021/07/12 08:04:46;;;;;;;3.83;1.55;;;24.30;97.00;;;;;;5001800;28;20095;-74
2021/07/12 08:07:12;;;;;;;5.88;1.38;;;24.30;96.60;;;;;;5008929;28;20026;-75
2021/07/12 08:09:38;;;;;;;2.13;1.23;;;24.10;97.70;;;;;;5027870;28;20045;-73
2021/07/12 08:12:04;;;;;;;3.47;1.90;;;24.30;97.90;;;;;;5015730;28;20065;-77
2021/07/12 08:14:30;;;;;;;3.25;1.83;;;24.50;97.00;;;;;;4998945;28;20046;-73
2021/07/12 08:16:56;;;;;;;4.30;1.52;;;24.70;96.90;;;;;;5000089;28;20069;-76
2021/07/12 08:19:22;;;;;;;4.15;2.50;;;25.10;95.80;;;;;;5030315;28;20029;-77
2021/07/12 08:21:48;;;;;;;1.67;1.40;;;25.40;94.20;;;;;;5011743;28;20067;-76
2021/07/12 08:24:14;;;;;;;5.47;1.88;;;25.60;93.10;;;;;;5027177;28;20033;-76
2021/07/12 08:26:41;;;;;;;3.67;2.47;;;25.70;91.60;;;;;;5008787;28;20026;-74
2021/07/12 08:29:08;;;;;;;3.03;1.98;;;25.80;91.80;;;;;;5017569;28;20018;-77
2021/07/12 08:31:33;;;;;;;2.50;1.92;;;25.90;91.90;;;;;;5029133;28;20024;-76
2021/07/12 08:34:00;;;;;;;2.33;1.67;;;26.00;91.90;;;;;;5025513;28;20475;-75
2021/07/12 08:36:25;;;;;;;6.55;2.10;;;26.20;91.00;;;;;;5014882;28;20033;-77
2021/07/12 08:38:51;;;;;;;5.25;2.45;;;26.40;90.70;;;;;;5017748;28;20463;-75
2021/07/12 08:41:17;;;;;;;4.15;2.60;;;26.60;89.00;;;;;;5018732;28;20486;-75
2021/07/12 08:43:43;;;;;;;4.68;2.38;;;26.60;87.60;;;;;;4998400;28;20024;-77
2021/07/12 08:46:09;;;;;;;2.45;1.77;;;26.60;88.70;;;;;;5019834;28;20034;-76
2021/07/12 08:48:35;;;;;;;3.58;1.95;;;26.60;87.50;;;;;;5028965;28;20105;-76
2021/07/12 08:51:01;;;;;;;3.13;2.20;;;26.60;86.10;;;;;;5038240;28;20060;-77
2021/07/12 08:53:32;;;;;;;4.35;2.20;;;26.80;85.70;;;;;;5031298;28;20577;-74
2021/07/12 08:55:58;;;;;;;4.03;2.05;;;26.70;83.90;;;;;;5012896;28;20141;-75
2021/07/12 08:58:29;;;;;;;4.47;2.15;;;26.60;84.80;;;;;;5016559;28;20021;-73
2021/07/12 09:01:04;;;;;;;3.13;1.90;;;26.50;84.60;;;;;;5023789;28;20025;-77
2021/07/12 09:03:31;;;;;;;4.10;2.67;;;26.60;84.10;;;;;;5005749;28;20030;-77
2021/07/12 09:05:59;;;;;;;4.07;2.03;;;26.40;83.40;;;;;;5019371;28;20030;-73
2021/07/12 09:08:42;;;;;;;3.80;2.05;;;26.20;82.90;;;;;;5015496;28;20022;-76
2021/07/12 09:11:21;;;;;;;3.17;2.00;;;25.80;84.30;;;;;;4994090;28;20045;-75
2021/07/12 09:13:54;;;;;;;2.67;1.65;;;25.70;86.60;;;;;;5014239;28;20018;-74
2021/07/12 09:16:35;;;;;;;5.15;2.15;;;25.70;87.30;;;;;;5012625;28;20033;-75
2021/07/12 09:19:12;;;;;;;3.13;2.10;;;25.70;85.40;;;;;;4997540;28;20030;-75
2021/07/12 09:21:39;;;;;;;1.90;1.35;;;25.60;86.70;;;;;;5000557;28;20120;-76
2021/07/12 09:24:16;;;;;;;3.07;1.70;;;25.70;88.10;;;;;;5010860;28;20105;-77
2021/07/12 09:26:47;;;;;;;3.03;1.30;;;25.90;82.10;;;;;;4996068;28;20545;-76
2021/07/12 09:29:25;;;;;;;2.65;0.90;;;26.10;82.00;;;;;;5001040;28;20434;-78
2021/07/12 09:31:51;;;;;;;2.65;1.73;;;26.10;81.10;;;;;;5014857;28;20519;-76
2021/07/12 09:34:18;;;;;;;3.28;1.88;;;25.90;81.80;;;;;;5031550;28;20034;-78
2021/07/12 09:36:45;;;;;;;3.33;2.17;;;26.10;82.50;;;;;;5034515;28;20026;-77
2021/07/12 09:39:29;;;;;;;3.92;2.15;;;26.20;84.60;;;;;;5016606;28;20025;-77
2021/07/12 09:42:00;;;;;;;4.65;2.00;;;26.40;81.80;;;;;;5035132;28;20021;-77
2021/07/12 09:44:28;;;;;;;6.45;2.30;;;26.30;83.70;;;;;;4998730;28;20149;-76
2021/07/12 09:46:55;;;;;;;4.03;2.13;;;26.10;83.40;;;;;;5029162;23;20056;-76
2021/07/12 09:49:23;;;;;;;3.15;1.80;;;26.10;84.40;;;;;;4997041;28;20419;-77
2021/07/12 09:51:54;;;;;;;4.28;2.53;;;26.20;84.30;;;;;;5000736;28;20490;-76
2021/07/12 09:54:23;;;;;;;4.22;2.55;;;26.20;82.60;;;;;;5011670;28;20066;-77
2021/07/12 09:56:51;;;;;;;3.35;1.77;;;26.20;82.00;;;;;;5017023;28;20026;-76
2021/07/12 09:59:18;;;;;;;3.92;2.42;;;26.30;82.60;;;;;;5014772;28;20076;-74
2021/07/12 10:01:48;;;;;;;5.50;3.38;;;26.60;82.30;;;;;;5014796;28;20030;-76
2021/07/12 10:04:14;;;;;;;3.90;3.08;;;26.70;79.50;;;;;;5000316;28;20480;-78
2021/07/12 10:06:42;;;;;;;3.83;2.13;;;26.70;78.60;;;;;;5000182;28;20479;-76
2021/07/12 10:09:08;;;;;;;3.50;2.13;;;26.50;80.60;;;;;;5016758;28;20018;-75
2021/07/12 10:11:34;;;;;;;4.70;2.60;;;26.50;80.50;;;;;;4996880;28;20018;-76
2021/07/12 10:14:00;;;;;;;6.30;3.15;;;26.50;79.50;;;;;;5002774;28;20026;-75
2021/07/12 10:16:29;;;;;;;4.78;2.60;;;26.50;79.40;;;;;;4994669;28;20075;-78
2021/07/12 10:18:55;;;;;;;5.07;2.20;;;26.50;80.30;;;;;;5019736;23;20414;-74
2021/07/12 10:21:21;;;;;;;3.67;2.47;;;26.50;81.40;;;;;;5014285;28;20387;-76
2021/07/12 10:23:56;;;;;;;4.32;2.25;;;26.60;79.10;;;;;;5012948;28;20376;-78
2021/07/12 10:26:41;;;;;;;5.28;2.50;;;26.60;76.80;;;;;;5011895;28;20391;-76
2021/07/12 10:29:16;;;;;;;2.83;2.30;;;26.60;77.80;;;;;;5014828;28;20101;-76
2021/07/12 10:32:08;;;;;;;4.82;2.00;;;26.60;79.00;;;;;;4979575;28;20041;-76
2021/07/12 10:34:42;;;;;;;5.25;2.65;;;26.50;78.60;;;;;;4994173;28;20510;-77
2021/07/12 10:37:45;;;;;;;4.65;1.67;;;26.50;76.60;;;;;;4991056;28;20029;-74
2021/07/12 10:40:18;;;;;;;3.17;1.83;;;26.50;77.40;;;;;;5003779;28;20034;-76
2021/07/12 10:42:55;;;;;;;2.47;1.55;;;26.50;77.20;;;;;;5013841;28;20506;-77
2021/07/12 10:45:28;;;;;;;3.20;2.35;;;26.50;77.60;;;;;;4978209;28;20042;-75
2021/07/12 10:48:06;;;;;;;2.40;1.63;;;26.40;76.80;;;;;;4976998;28;20022;-75
2021/07/12 10:50:38;;;;;;;3.33;1.33;;;26.40;79.70;;;;;;4978945;28;20522;-76
2021/07/12 10:53:16;;;;;;;2.70;1.65;;;26.40;80.10;;;;;;5013412;28;20022;-76
2021/07/12 10:55:44;;;;;;;3.28;1.23;;;26.60;78.40;;;;;;4995561;23;20041;-75
2021/07/12 10:58:25;;;;;;;1.25;0.68;;;27.00;76.00;;;;;;4989678;28;20023;-77
2021/07/12 11:00:52;;;;;;;2.03;0.77;;;27.30;74.60;;;;;;5011654;23;20100;-75
2021/07/12 11:03:38;;;;;;;1.48;0.85;;;27.70;72.40;;;;;;5014300;28;20383;-76
2021/07/12 11:06:08;;;;;;;0.98;0.65;;;27.80;70.20;;;;;;4995571;28;20037;-75
2021/07/12 11:08:47;;;;;;;1.08;0.70;;;27.70;71.00;;;;;;5013050;28;20072;-77
2021/07/12 11:11:36;;;;;;;3.40;0.60;;;27.70;69.30;;;;;;5001969;28;20025;-78
2021/07/12 11:14:06;;;;;;;0.65;0.50;;;27.60;68.40;;;;;;5013654;28;20467;-75
2021/07/12 11:16:38;;;;;;;1.17;0.45;;;27.70;67.40;;;;;;5002412;28;20384;-75
2021/07/12 11:19:43;;;;;;;1.67;0.50;;;28.00;67.50;;;;;;4979088;28;20030;-76
2021/07/12 11:22:14;;;;;;;0.63;0.30;;;28.60;65.90;;;;;;4973876;28;20045;-75
2021/07/12 11:25:05;;;;;;;1.27;0.43;;;29.10;65.10;;;;;;5005356;28;20113;-76
2021/07/12 11:27:47;;;;;;;1.10;0.43;;;29.20;65.40;;;;;;4981270;28;20032;-74
2021/07/12 11:30:26;;;;;;;0.77;0.32;;;29.60;61.00;;;;;;4996940;28;20018;-74
2021/07/12 11:32:52;;;;;;;1.80;0.40;;;29.80;61.60;;;;;;5013870;28;20037;-77
2021/07/12 11:35:18;;;;;;;0.60;0.28;;;30.00;61.20;;;;;;5023790;23;20491;-75
2021/07/12 11:38:09;;;;;;;2.33;0.35;;;31.00;62.20;;;;;;5014712;28;20018;-77
2021/07/12 11:40:32;;;;;;;0.77;0.40;;;30.40;59.30;;;;;;5009352;28;20173;-75
2021/07/12 11:42:58;;;;;;;0.70;0.40;;;30.10;58.30;;;;;;4989160;23;20085;-76
2021/07/12 11:45:24;;;;;;;1.38;0.50;;;30.10;60.50;;;;;;5003499;28;20366;-77
2021/07/12 11:47:55;;;;;;;0.82;0.30;;;29.90;59.30;;;;;;4982083;28;20054;-75
2021/07/12 11:50:25;;;;;;;0.88;0.50;;;29.70;59.80;;;;;;5002007;28;20026;-77
2021/07/12 11:52:56;;;;;;;1.08;0.50;;;29.50;61.40;;;;;;5036674;23;20057;-78
2021/07/12 11:55:24;;;;;;;0.55;0.50;;;29.50;58.20;;;;;;5017014;28;20029;-75
2021/07/12 11:57:52;;;;;;;0.63;0.30;;;29.60;60.10;;;;;;4999750;28;20427;-77
2021/07/12 12:00:23;;;;;;;0.55;0.30;;;29.40;61.10;;;;;;4996957;28;20025;-78
2021/07/12 12:03:16;;;;;;;2.30;1.10;;;29.30;60.00;;;;;;4981244;28;20019;-75
2021/07/12 12:05:44;;;;;;;1.70;0.47;;;29.10;59.90;;;;;;4994092;28;20064;-75
2021/07/12 12:08:18;;;;;;;0.57;0.10;;;28.80;61.30;;;;;;4985399;28;20097;-75
2021/07/12 12:10:45;;;;;;;1.33;0.60;;;28.80;60.90;;;;;;4998551;23;20046;-76
2021/07/12 12:13:10;;;;;;;0.55;0.50;;;28.90;61.10;;;;;;5015924;28;20026;-76
2021/07/12 12:15:38;;;;;;;1.90;0.57;;;29.20;61.00;;;;;;5006377;28;20109;-75
2021/07/12 12:18:13;;;;;;;0.80;0.50;;;29.70;60.90;;;;;;4995115;28;20085;-76
2021/07/12 12:20:44;;;;;;;3.15;0.40;;;30.10;58.50;;;;;;4997900;28;20034;-78
2021/07/12 12:23:12;;;;;;;0.82;0.50;;;30.30;58.40;;;;;;4980298;28;20431;-76
2021/07/12 12:26:01;;;;;;;1.30;0.60;;;30.40;59.00;;;;;;4998991;23;20183;-78
2021/07/12 12:28:44;;;;;;;1.48;0.65;;;30.10;58.00;;;;;;5014546;28;20026;-78
2021/07/12 12:31:15;;;;;;;1.65;0.50;;;29.90;57.90;;;;;;5017771;28;20084;-78
2021/07/12 12:34:01;;;;;;;0.63;0.43;;;29.60;58.20;;;;;;5041547;23;20058;-77
2021/07/12 12:36:33;;;;;;;1.63;0.77;;;29.00;59.60;;;;;;4998280;28;20442;-76
2021/07/12 12:39:18;;;;;;;0.20;0.20;;;28.60;59.90;;;;;;5013929;28;20033;-77
2021/07/12 12:41:50;;;;;;;1.05;0.32;;;28.20;60.00;;;;;;4995670;28;20109;-75
2021/07/12 12:44:18;;;;;;;0.52;0.40;;;27.80;60.60;;;;;;5016462;28;20145;-77
2021/07/12 12:46:54;;;;;;;;;;;27.60;61.40;;;;;;5016697;28;20480;-76
2021/07/12 12:49:31;;;;;;;1.58;0.50;;;27.30;62.30;;;;;;4999474;28;20397;-76
2021/07/12 12:52:06;;;;;;;1.75;0.80;;;27.20;63.20;;;;;;4977788;23;20065;-76